Time;durP1;ratioP1;P1;durP2;ratioP2;P2;SDS_P1;SDS_P2;PMS_P1;PMS_P2;Temp;Humidity;BMP_temperature;BMP_pressure;BME280_temperature;BME280_humidity;BME280_pressure;Samples;Min_cycle;Max_cycle;Signal;HPM_P1;HPM_P2
2023/07/31 00:00:12;;;;;;;4.28;3.08;;;14.60;99.90;;;;;;4946396;28;20086;-87
2023/07/31 00:02:39;;;;;;;4.70;3.75;;;14.60;99.90;;;;;;4924443;29;20725;-87
2023/07/31 00:05:08;;;;;;;4.38;3.42;;;14.60;99.90;;;;;;4949841;28;20050;-86
2023/07/31 00:07:35;;;;;;;6.97;4.03;;;14.60;99.90;;;;;;4941001;28;20043;-86
2023/07/31 00:10:02;;;;;;;5.63;3.65;;;14.60;99.90;;;;;;4922951;28;20043;-85
2023/07/31 00:12:29;;;;;;;5.07;3.83;;;14.60;99.90;;;;;;4929558;28;20049;-83
2023/07/31 00:14:57;;;;;;;4.07;3.67;;;14.60;99.90;;;;;;4934455;28;20047;-85
2023/07/31 00:17:23;;;;;;;7.00;4.00;;;14.60;99.90;;;;;;4913401;29;20149;-86
2023/07/31 00:19:51;;;;;;;4.93;4.30;;;14.60;99.90;;;;;;4921893;29;20039;-84
2023/07/31 00:22:18;;;;;;;6.45;4.72;;;14.60;99.90;;;;;;4933665;28;20128;-84
2023/07/31 00:24:45;;;;;;;6.03;4.20;;;14.60;99.90;;;;;;4948478;28;20057;-85
2023/07/31 00:27:11;;;;;;;6.20;4.55;;;14.60;99.90;;;;;;4917012;28;20071;-86
2023/07/31 00:29:38;;;;;;;5.57;4.57;;;14.50;99.90;;;;;;4930151;28;20405;-84
2023/07/31 00:32:06;;;;;;;6.95;4.43;;;14.60;99.90;;;;;;4933632;28;20053;-84
2023/07/31 00:34:33;;;;;;;8.00;5.32;;;14.60;99.90;;;;;;4962686;28;20054;-82
2023/07/31 00:37:00;;;;;;;6.25;4.68;;;14.60;99.90;;;;;;4934949;28;20047;-88
2023/07/31 00:39:26;;;;;;;11.05;5.57;;;14.70;99.90;;;;;;4963003;28;20046;-84
2023/07/31 00:41:53;;;;;;;6.38;4.63;;;14.70;99.90;;;;;;4940723;28;20054;-85
2023/07/31 00:44:21;;;;;;;6.65;5.03;;;14.70;99.90;;;;;;4924092;28;20047;-84
2023/07/31 00:46:48;;;;;;;7.38;4.72;;;14.70;99.90;;;;;;4951013;28;20050;-87
2023/07/31 00:49:16;;;;;;;6.30;4.25;;;14.70;99.90;;;;;;4925134;28;20062;-89
2023/07/31 00:51:43;;;;;;;6.05;4.85;;;14.70;99.90;;;;;;4927293;28;20047;-85
2023/07/31 00:54:10;;;;;;;7.18;4.70;;;14.70;99.90;;;;;;4930663;28;20105;-85
2023/07/31 00:56:40;;;;;;;8.27;4.90;;;14.70;99.90;;;;;;4927953;28;20105;-86
2023/07/31 00:59:07;;;;;;;7.75;4.97;;;14.80;99.90;;;;;;4928643;28;20440;-87
2023/07/31 01:01:34;;;;;;;5.53;4.72;;;14.80;99.90;;;;;;4942066;28;20046;-84
2023/07/31 01:04:01;;;;;;;6.85;4.30;;;14.80;99.90;;;;;;4942083;28;20054;-84
2023/07/31 01:07:03;;;;;;;7.38;4.38;;;14.80;99.90;;;;;;4949847;28;20046;-85
2023/07/31 01:10:08;;;;;;;6.70;4.07;;;14.80;99.90;;;;;;4932158;28;20059;-83
2023/07/31 01:12:37;;;;;;;7.45;4.22;;;14.80;99.90;;;;;;4927063;28;20054;-82
2023/07/31 01:15:05;;;;;;;5.28;4.25;;;14.80;99.90;;;;;;4905630;28;20645;-83
2023/07/31 01:17:33;;;;;;;6.35;4.32;;;14.80;99.90;;;;;;4948013;28;20651;-79
2023/07/31 01:20:03;;;;;;;4.80;4.20;;;14.80;99.90;;;;;;4929731;28;20035;-80
2023/07/31 01:22:52;;;;;;;6.28;4.45;;;14.80;99.90;;;;;;4933422;28;20053;-83
2023/07/31 01:25:57;;;;;;;8.32;4.55;;;14.90;99.90;;;;;;4929841;28;20115;-79
2023/07/31 01:28:30;;;;;;;7.45;4.38;;;14.90;99.90;;;;;;4939780;28;20047;-83
2023/07/31 01:30:59;;;;;;;7.72;4.60;;;14.80;99.90;;;;;;4928929;28;20042;-82
2023/07/31 01:33:28;;;;;;;6.03;4.30;;;14.80;99.90;;;;;;4951782;28;20142;-83
2023/07/31 01:35:56;;;;;;;6.57;4.55;;;14.90;99.90;;;;;;4925897;28;20071;-79
2023/07/31 01:38:23;;;;;;;9.23;5.47;;;14.80;99.90;;;;;;4934982;28;20081;-81
2023/07/31 01:40:53;;;;;;;6.90;5.32;;;14.80;99.90;;;;;;4939259;28;20107;-83
2023/07/31 01:43:20;;;;;;;7.97;5.30;;;14.80;99.90;;;;;;4922263;28;20082;-81
2023/07/31 01:45:47;;;;;;;10.23;4.78;;;14.80;99.90;;;;;;4913873;28;20046;-85
2023/07/31 01:48:14;;;;;;;9.38;5.28;;;14.80;99.90;;;;;;4922176;28;20476;-85
2023/07/31 01:50:41;;;;;;;9.85;4.72;;;14.80;99.90;;;;;;4938243;28;20062;-82
2023/07/31 01:53:07;;;;;;;9.25;5.72;;;14.80;99.90;;;;;;4930530;28;20042;-82
2023/07/31 01:55:35;;;;;;;7.78;5.63;;;14.80;99.90;;;;;;4940358;28;20857;-84
2023/07/31 01:58:01;;;;;;;8.88;5.32;;;14.80;99.90;;;;;;4938211;28;20042;-81
2023/07/31 02:00:29;;;;;;;8.77;5.15;;;14.80;99.90;;;;;;4954699;28;20053;-80
2023/07/31 02:02:55;;;;;;;10.07;5.25;;;14.70;99.90;;;;;;4955035;28;20554;-79
2023/07/31 02:05:23;;;;;;;8.65;5.47;;;14.70;99.90;;;;;;4937717;28;20047;-84
2023/07/31 02:07:50;;;;;;;5.32;3.83;;;14.70;99.90;;;;;;4922781;28;20058;-79
2023/07/31 02:10:17;;;;;;;6.80;4.03;;;14.70;99.90;;;;;;4942032;28;20795;-81
2023/07/31 02:12:43;;;;;;;7.25;3.70;;;14.80;99.90;;;;;;4940195;28;20042;-83
2023/07/31 04:20:06;;;;;;;13.43;5.78;;;14.80;99.90;;;;;;4953399;28;20041;-82
2023/07/31 04:22:33;;;;;;;15.77;5.90;;;14.80;99.90;;;;;;4953576;28;20081;-84
2023/07/31 04:25:00;;;;;;;14.32;6.03;;;14.80;99.90;;;;;;4948286;28;20062;-84
2023/07/31 04:27:27;;;;;;;16.48;5.65;;;14.80;99.90;;;;;;4943619;28;20039;-85
2023/07/31 04:29:54;;;;;;;12.18;4.88;;;14.80;99.90;;;;;;4947034;28;20508;-86
2023/07/31 04:32:21;;;;;;;12.95;6.55;;;14.90;99.90;;;;;;4933254;28;20149;-83
2023/07/31 04:34:48;;;;;;;14.45;5.80;;;14.90;99.90;;;;;;4930818;28;20043;-83
2023/07/31 04:37:15;;;;;;;14.57;7.38;;;14.80;99.90;;;;;;4944918;28;20078;-82
2023/07/31 04:39:41;;;;;;;14.35;5.80;;;14.80;99.90;;;;;;4937532;28;20105;-85
2023/07/31 04:42:08;;;;;;;19.15;6.88;;;14.70;99.90;;;;;;4920311;28;20230;-82
2023/07/31 04:44:35;;;;;;;17.95;6.85;;;14.70;99.90;;;;;;4923558;28;20046;-90
2023/07/31 04:47:02;;;;;;;19.17;7.85;;;14.70;99.90;;;;;;4933074;28;20049;-84
2023/07/31 04:49:29;;;;;;;15.60;7.38;;;14.70;99.90;;;;;;4933116;28;20047;-86
2023/07/31 04:51:56;;;;;;;21.17;7.35;;;14.70;99.90;;;;;;4926403;28;20035;-85
2023/07/31 04:54:23;;;;;;;12.75;7.30;;;14.70;99.90;;;;;;4941326;28;20082;-82
2023/07/31 04:56:53;;;;;;;16.23;6.78;;;14.70;99.90;;;;;;4927182;28;20054;-84
2023/07/31 04:59:20;;;;;;;11.52;5.53;;;14.70;99.90;;;;;;4914125;28;20059;-82
2023/07/31 05:01:48;;;;;;;13.55;5.82;;;14.70;99.90;;;;;;4934191;28;20223;-84
2023/07/31 05:04:15;;;;;;;14.30;6.30;;;14.80;99.90;;;;;;4924330;28;20066;-84
2023/07/31 05:06:42;;;;;;;15.18;5.93;;;14.80;99.90;;;;;;4952880;28;20042;-82
2023/07/31 05:09:09;;;;;;;12.98;6.80;;;14.80;99.90;;;;;;4935558;28;20050;-83
2023/07/31 05:11:36;;;;;;;13.15;7.88;;;14.80;99.90;;;;;;4927745;28;20502;-81
2023/07/31 05:14:03;;;;;;;14.60;7.70;;;14.80;99.90;;;;;;4932586;28;20531;-82
2023/07/31 05:16:30;;;;;;;12.35;7.38;;;14.80;99.90;;;;;;4917154;28;20145;-82
2023/07/31 05:18:57;;;;;;;12.20;8.43;;;14.90;99.90;;;;;;4925570;28;20054;-83
2023/07/31 05:21:24;;;;;;;13.93;7.90;;;14.90;99.90;;;;;;4928657;28;20125;-86
2023/07/31 05:23:50;;;;;;;12.43;7.07;;;14.90;99.90;;;;;;4921503;28;20062;-82
2023/07/31 05:26:17;;;;;;;14.07;7.85;;;14.90;99.90;;;;;;4923548;28;20561;-81
2023/07/31 05:28:45;;;;;;;15.80;7.30;;;14.90;99.90;;;;;;4937767;28;20102;-81
2023/07/31 05:31:12;;;;;;;13.82;8.27;;;15.00;99.90;;;;;;4953535;28;20039;-84
2023/07/31 05:33:39;;;;;;;14.98;8.20;;;15.00;99.90;;;;;;4934258;28;20053;-82
2023/07/31 05:36:06;;;;;;;14.80;9.30;;;15.10;99.90;;;;;;4929018;28;20572;-84
2023/07/31 05:38:33;;;;;;;15.73;9.20;;;15.10;99.90;;;;;;4929837;28;20484;-81
2023/07/31 05:40:59;;;;;;;15.68;8.73;;;15.10;99.90;;;;;;4915468;28;20555;-82
2023/07/31 05:43:26;;;;;;;18.40;9.02;;;15.20;99.90;;;;;;4932373;28;20127;-82
2023/07/31 05:45:53;;;;;;;13.43;9.70;;;15.20;99.90;;;;;;4946295;28;20043;-83
2023/07/31 05:48:20;;;;;;;11.25;8.52;;;15.30;99.90;;;;;;4929384;28;20043;-82
2023/07/31 05:50:47;;;;;;;11.50;8.93;;;15.30;99.90;;;;;;4941133;28;20054;-80
2023/07/31 05:53:14;;;;;;;17.02;10.68;;;15.30;99.90;;;;;;4935355;28;20043;-78
2023/07/31 05:55:41;;;;;;;12.55;9.52;;;15.40;99.90;;;;;;4931922;28;20135;-83
2023/07/31 05:58:08;;;;;;;17.02;9.90;;;15.40;99.90;;;;;;4934416;28;20040;-78
2023/07/31 06:00:35;;;;;;;13.88;9.55;;;15.40;99.90;;;;;;4926696;28;20398;-85
2023/07/31 06:03:02;;;;;;;21.92;10.63;;;15.40;99.90;;;;;;4895058;29;20055;-84
2023/07/31 06:05:29;;;;;;;15.05;9.73;;;15.40;99.90;;;;;;4893987;29;20059;-86
2023/07/31 06:07:57;;;;;;;19.80;10.40;;;15.40;99.90;;;;;;4913652;29;20047;-84
2023/07/31 06:10:24;;;;;;;20.20;10.20;;;15.50;99.90;;;;;;4924870;29;20036;-83
2023/07/31 06:12:51;;;;;;;20.38;10.35;;;15.50;99.90;;;;;;4926906;28;20039;-83
2023/07/31 06:15:20;;;;;;;18.67;12.13;;;15.40;99.90;;;;;;4910622;29;20573;-83
2023/07/31 06:17:47;;;;;;;15.18;9.93;;;15.50;99.90;;;;;;4918578;29;20055;-81
2023/07/31 06:20:15;;;;;;;17.73;9.43;;;15.40;99.90;;;;;;4911224;28;20043;-85
2023/07/31 06:22:41;;;;;;;16.30;9.50;;;15.50;99.90;;;;;;4916569;28;20412;-83
2023/07/31 06:25:08;;;;;;;15.80;9.43;;;15.40;99.90;;;;;;4919629;28;20058;-83
2023/07/31 06:27:40;;;;;;;15.05;9.38;;;15.40;99.90;;;;;;4930874;28;20057;-83
2023/07/31 06:30:07;;;;;;;14.38;9.98;;;15.50;99.90;;;;;;4937983;28;20061;-85
2023/07/31 06:32:34;;;;;;;12.30;9.48;;;15.50;99.90;;;;;;4916629;28;20154;-87
2023/07/31 06:35:01;;;;;;;16.65;10.77;;;15.50;99.90;;;;;;4936115;28;20463;-85
2023/07/31 06:37:27;;;;;;;21.70;10.07;;;15.60;99.90;;;;;;4930726;28;20062;-84
2023/07/31 06:39:54;;;;;;;15.02;10.32;;;15.60;99.90;;;;;;4938230;28;20258;-86
2023/07/31 06:42:22;;;;;;;17.38;10.82;;;15.60;99.90;;;;;;4935276;28;20047;-83
2023/07/31 06:44:49;;;;;;;14.70;8.95;;;15.60;99.90;;;;;;4916108;28;20569;-84
2023/07/31 06:47:15;;;;;;;18.52;9.77;;;15.60;99.90;;;;;;4939253;28;20042;-85
2023/07/31 06:49:42;;;;;;;16.90;9.15;;;15.60;99.90;;;;;;4920047;28;20101;-86
2023/07/31 06:52:11;;;;;;;16.42;9.82;;;15.60;99.90;;;;;;4956054;28;20047;-87
2023/07/31 06:54:37;;;;;;;15.85;10.23;;;15.60;99.90;;;;;;4941337;28;20055;-84
2023/07/31 06:57:04;;;;;;;17.98;10.32;;;15.60;99.90;;;;;;4938956;28;20424;-86
2023/07/31 06:59:31;;;;;;;13.57;9.38;;;15.60;99.90;;;;;;4926558;28;20105;-85
2023/07/31 07:01:58;;;;;;;13.57;9.73;;;15.60;99.90;;;;;;4938849;28;20479;-84
2023/07/31 07:04:26;;;;;;;18.42;9.00;;;15.70;99.90;;;;;;4935927;28;20509;-85
2023/07/31 07:06:53;;;;;;;13.75;8.68;;;15.70;99.90;;;;;;4940720;28;20178;-82
2023/07/31 07:09:20;;;;;;;14.75;8.75;;;15.70;99.90;;;;;;4946263;28;20046;-79
2023/07/31 07:11:47;;;;;;;15.30;8.98;;;15.70;99.90;;;;;;4931592;28;20074;-85
2023/07/31 07:14:13;;;;;;;17.25;9.18;;;15.60;99.90;;;;;;4924451;28;20043;-83
2023/07/31 07:16:40;;;;;;;15.23;9.98;;;15.70;99.90;;;;;;4933310;28;20145;-83
2023/07/31 07:19:08;;;;;;;15.35;9.25;;;15.70;99.90;;;;;;4941805;28;20115;-83
2023/07/31 07:21:35;;;;;;;14.07;9.07;;;15.60;99.90;;;;;;4941069;28;20082;-84
2023/07/31 07:24:01;;;;;;;17.80;9.27;;;15.60;99.90;;;;;;4946932;28;20065;-90
2023/07/31 07:26:28;;;;;;;14.75;9.38;;;15.60;99.90;;;;;;4932712;28;20408;-80
2023/07/31 07:28:55;;;;;;;14.13;8.85;;;15.60;99.90;;;;;;4941080;28;20638;-86
2023/07/31 07:31:24;;;;;;;10.55;8.02;;;15.50;99.90;;;;;;4953555;28;20057;-88
2023/07/31 07:33:51;;;;;;;11.25;8.90;;;15.40;99.90;;;;;;4920987;28;20050;-86
2023/07/31 07:36:18;;;;;;;15.90;8.25;;;15.40;99.90;;;;;;4936979;28;20050;-81
2023/07/31 07:38:44;;;;;;;20.65;9.93;;;15.40;99.90;;;;;;4909943;28;20050;-86
2023/07/31 07:41:11;;;;;;;19.20;8.50;;;15.40;99.90;;;;;;4932168;28;20050;-86
2023/07/31 07:43:38;;;;;;;22.15;10.48;;;15.40;99.90;;;;;;4920063;28;20053;-83
2023/07/31 07:46:05;;;;;;;22.27;9.82;;;15.40;99.90;;;;;;4929416;28;20876;-84
2023/07/31 07:48:32;;;;;;;16.50;9.43;;;15.40;99.90;;;;;;4931083;28;20039;-84
2023/07/31 07:50:59;;;;;;;17.23;9.25;;;15.50;99.90;;;;;;4950618;28;20040;-86
2023/07/31 07:53:26;;;;;;;19.48;9.20;;;15.50;99.90;;;;;;4921527;28;20079;-86
2023/07/31 07:55:52;;;;;;;15.95;8.55;;;15.50;99.90;;;;;;4930846;28;20201;-85
2023/07/31 07:58:20;;;;;;;16.92;10.00;;;15.60;99.90;;;;;;4912519;28;20134;-87
2023/07/31 08:00:53;;;;;;;17.30;9.05;;;15.60;99.90;;;;;;4923070;28;20046;-83
2023/07/31 08:03:20;;;;;;;16.48;9.80;;;15.60;99.90;;;;;;4941325;28;20043;-87
2023/07/31 08:05:47;;;;;;;17.58;9.55;;;15.50;99.90;;;;;;4921157;28;20697;-84
2023/07/31 08:08:17;;;;;;;22.77;9.73;;;15.50;99.90;;;;;;4956822;28;20137;-87
2023/07/31 08:10:44;;;;;;;19.35;10.02;;;15.50;99.90;;;;;;4939234;28;20519;-89
2023/07/31 08:13:14;;;;;;;18.45;10.65;;;15.40;99.90;;;;;;4959530;28;20050;-86
2023/07/31 08:15:44;;;;;;;21.80;9.45;;;15.40;99.90;;;;;;4926563;28;20061;-88
2023/07/31 08:18:11;;;;;;;18.38;11.25;;;15.40;99.90;;;;;;4937475;28;20057;-87
2023/07/31 08:20:38;;;;;;;20.70;10.52;;;15.40;99.90;;;;;;4945282;28;20051;-86
2023/07/31 08:23:05;;;;;;;19.65;9.68;;;15.30;99.90;;;;;;4936516;28;20090;-86
2023/07/31 08:25:35;;;;;;;22.23;13.07;;;15.40;99.90;;;;;;4949246;28;20046;-83
2023/07/31 08:28:03;;;;;;;17.25;10.23;;;15.40;99.90;;;;;;4936084;28;20408;-81
2023/07/31 08:30:30;;;;;;;26.33;12.20;;;15.40;99.90;;;;;;4936153;28;20089;-84
2023/07/31 08:32:57;;;;;;;17.42;10.68;;;15.40;99.90;;;;;;4924354;28;20045;-84
2023/07/31 08:35:25;;;;;;;19.25;12.55;;;15.60;99.90;;;;;;4928036;28;20047;-89
2023/07/31 08:37:52;;;;;;;18.13;12.10;;;15.60;99.90;;;;;;4940733;28;20456;-88
2023/07/31 08:40:19;;;;;;;20.73;10.82;;;15.70;99.90;;;;;;4938730;28;20042;-87
2023/07/31 08:42:54;;;;;;;19.73;11.20;;;15.80;99.90;;;;;;4930215;28;20153;-85
2023/07/31 08:45:21;;;;;;;20.35;11.68;;;15.70;99.90;;;;;;4921886;28;20043;-85
2023/07/31 08:47:50;;;;;;;18.08;10.13;;;15.80;99.90;;;;;;4929060;28;20121;-86
2023/07/31 08:50:20;;;;;;;13.27;9.50;;;15.90;99.90;;;;;;4938166;28;20043;-88
2023/07/31 08:52:49;;;;;;;18.13;9.60;;;15.90;99.90;;;;;;4930044;28;20043;-86
2023/07/31 08:55:16;;;;;;;13.98;9.02;;;15.90;99.90;;;;;;4932402;28;20110;-85
2023/07/31 08:57:43;;;;;;;16.70;9.43;;;16.00;99.90;;;;;;4937202;28;20521;-84
2023/07/31 09:00:11;;;;;;;14.55;8.43;;;16.00;99.90;;;;;;4920781;28;20050;-82
2023/07/31 09:02:46;;;;;;;16.65;8.68;;;16.00;99.90;;;;;;4937368;28;20054;-83
2023/07/31 09:05:15;;;;;;;13.50;8.05;;;16.00;99.90;;;;;;4940928;28;20055;-87
2023/07/31 09:07:46;;;;;;;11.13;7.00;;;16.10;99.90;;;;;;4953873;28;20046;-87
2023/07/31 09:10:13;;;;;;;12.48;7.82;;;16.00;99.90;;;;;;4957004;28;20524;-86
2023/07/31 09:12:41;;;;;;;15.73;8.50;;;16.00;99.90;;;;;;4952722;28;20041;-89
2023/07/31 09:15:08;;;;;;;7.93;6.47;;;16.00;99.90;;;;;;4948402;28;20101;-86
2023/07/31 09:17:46;;;;;;;11.20;7.45;;;16.00;99.90;;;;;;4929721;28;20055;-85
2023/07/31 09:20:17;;;;;;;13.48;7.60;;;16.10;99.90;;;;;;4951031;28;20265;-84
2023/07/31 09:22:45;;;;;;;13.02;7.28;;;16.10;99.90;;;;;;4935636;28;20542;-85
2023/07/31 09:25:25;;;;;;;13.57;7.20;;;16.10;99.90;;;;;;4949316;28;20054;-86
2023/07/31 09:27:58;;;;;;;13.10;6.95;;;16.10;99.90;;;;;;4934817;28;20039;-86
2023/07/31 09:30:26;;;;;;;9.38;6.65;;;16.10;99.90;;;;;;4936304;28;20043;-89
2023/07/31 09:33:07;;;;;;;10.95;7.07;;;16.10;99.90;;;;;;4920601;28;20098;-86
2023/07/31 09:35:37;;;;;;;8.00;5.80;;;16.20;99.90;;;;;;4936904;28;20047;-90
2023/07/31 09:38:07;;;;;;;6.82;6.13;;;16.20;99.90;;;;;;4933898;28;20050;-84
2023/07/31 09:40:39;;;;;;;11.15;6.80;;;16.30;99.90;;;;;;4949533;28;20074;-86
2023/07/31 09:43:10;;;;;;;8.77;6.68;;;16.40;99.90;;;;;;4936966;28;20046;-86
2023/07/31 09:45:42;;;;;;;7.90;6.70;;;16.40;99.90;;;;;;4925226;28;20105;-86
2023/07/31 09:48:17;;;;;;;7.25;6.55;;;16.60;99.90;;;;;;4941179;28;20117;-85
2023/07/31 09:50:46;;;;;;;8.73;7.05;;;16.60;99.90;;;;;;4938831;28;20533;-87
2023/07/31 09:53:15;;;;;;;8.00;7.20;;;16.70;99.90;;;;;;4920742;28;20126;-85
2023/07/31 09:55:43;;;;;;;9.48;8.43;;;16.80;99.90;;;;;;4940065;28;20051;-84
2023/07/31 09:58:11;;;;;;;8.20;7.35;;;16.80;99.90;;;;;;4938952;28;20090;-85
2023/07/31 10:00:39;;;;;;;8.07;7.28;;;16.90;99.90;;;;;;4938008;28;20545;-87
2023/07/31 10:03:08;;;;;;;10.73;7.40;;;16.90;99.90;;;;;;4943241;28;20129;-80
2023/07/31 10:05:47;;;;;;;9.73;7.75;;;16.90;99.90;;;;;;4934242;28;20304;-82
2023/07/31 10:08:15;;;;;;;8.60;7.85;;;16.90;99.90;;;;;;4945379;28;20444;-85
2023/07/31 10:10:44;;;;;;;8.48;7.72;;;17.00;99.90;;;;;;4919160;28;20308;-83
2023/07/31 10:13:12;;;;;;;8.65;7.82;;;17.00;99.90;;;;;;4950565;28;20115;-85
2023/07/31 10:15:41;;;;;;;8.93;8.07;;;17.00;99.90;;;;;;4931443;28;20070;-85
2023/07/31 10:18:08;;;;;;;9.23;8.30;;;17.10;99.90;;;;;;4933181;28;20416;-85
2023/07/31 10:20:36;;;;;;;8.90;8.20;;;17.00;99.90;;;;;;4939935;28;20217;-87
2023/07/31 10:23:03;;;;;;;8.40;7.70;;;17.00;99.90;;;;;;4924294;28;20055;-87
2023/07/31 10:25:31;;;;;;;8.85;8.00;;;16.90;99.90;;;;;;4938613;28;20442;-88
2023/07/31 10:27:59;;;;;;;8.00;7.20;;;16.90;99.90;;;;;;4943690;28;20515;-82
2023/07/31 10:30:29;;;;;;;7.72;7.03;;;17.00;99.90;;;;;;4947677;28;20117;-83
2023/07/31 10:32:58;;;;;;;7.85;7.25;;;17.20;99.90;;;;;;4923225;28;20046;-87
2023/07/31 10:35:25;;;;;;;8.98;8.23;;;17.20;99.90;;;;;;4950106;28;20331;-84
2023/07/31 10:37:52;;;;;;;10.90;8.75;;;17.10;99.90;;;;;;4932280;28;20333;-85
2023/07/31 10:40:24;;;;;;;8.43;7.63;;;17.00;99.90;;;;;;4938845;28;20129;-85
2023/07/31 10:42:57;;;;;;;10.02;7.68;;;17.00;99.90;;;;;;4917354;28;20193;-83
2023/07/31 10:45:38;;;;;;;8.77;7.97;;;17.00;99.90;;;;;;4921196;28;20050;-84
2023/07/31 10:48:17;;;;;;;7.85;7.25;;;17.00;99.90;;;;;;4940290;28;20162;-84
2023/07/31 10:50:51;;;;;;;7.68;6.97;;;16.90;99.90;;;;;;4918164;28;20059;-81
2023/07/31 10:53:32;;;;;;;9.20;6.80;;;16.80;99.90;;;;;;4951640;28;20120;-83
2023/07/31 10:56:05;;;;;;;7.97;5.93;;;16.80;99.90;;;;;;4933916;28;20062;-83
2023/07/31 10:58:33;;;;;;;6.50;5.90;;;16.80;99.90;;;;;;4934330;28;20451;-86
2023/07/31 11:01:04;;;;;;;7.80;6.00;;;16.70;99.90;;;;;;4938445;28;20683;-88
2023/07/31 11:03:51;;;;;;;7.88;5.07;;;16.70;99.90;;;;;;4916833;28;20556;-87
2023/07/31 11:06:19;;;;;;;5.07;4.45;;;16.70;99.90;;;;;;4933638;28;20428;-89
2023/07/31 11:08:48;;;;;;;5.78;4.47;;;16.60;99.90;;;;;;4926492;28;20423;-90
2023/07/31 11:11:20;;;;;;;6.15;4.65;;;16.50;99.90;;;;;;4926375;28;20126;-90
2023/07/31 11:13:54;;;;;;;7.10;3.72;;;16.40;99.90;;;;;;4928479;28;20062;-88
2023/07/31 11:16:25;;;;;;;7.07;4.20;;;16.40;99.90;;;;;;4922052;28;20042;-89
2023/07/31 11:18:55;;;;;;;5.93;3.80;;;16.40;99.90;;;;;;4919765;28;20055;-85
2023/07/31 11:21:24;;;;;;;4.00;3.20;;;16.40;99.90;;;;;;4925732;28;20236;-87
2023/07/31 11:23:56;;;;;;;4.65;3.40;;;16.40;99.90;;;;;;4924146;28;20078;-84
2023/07/31 11:26:25;;;;;;;4.15;2.75;;;16.30;99.90;;;;;;4918074;28;20118;-89
2023/07/31 11:28:52;;;;;;;3.05;2.50;;;16.30;99.90;;;;;;4942504;28;20632;-87
2023/07/31 11:31:19;;;;;;;3.30;2.58;;;16.30;99.90;;;;;;4954846;28;20232;-86
2023/07/31 11:33:46;;;;;;;2.90;2.20;;;16.30;99.90;;;;;;4945019;28;20055;-85
2023/07/31 11:36:18;;;;;;;2.63;2.03;;;16.30;99.90;;;;;;4940661;28;20038;-86
2023/07/31 11:38:45;;;;;;;3.20;1.85;;;16.40;99.90;;;;;;4922543;28;20282;-85
2023/07/31 11:41:18;;;;;;;2.72;2.25;;;16.40;99.90;;;;;;4954822;28;20505;-86
2023/07/31 11:43:47;;;;;;;2.78;2.58;;;16.50;99.90;;;;;;4946983;28;20585;-85
2023/07/31 11:46:14;;;;;;;2.55;2.30;;;16.50;99.90;;;;;;4925099;28;20047;-83
2023/07/31 11:48:42;;;;;;;2.25;2.05;;;16.60;99.90;;;;;;4935189;28;20042;-86
2023/07/31 11:51:12;;;;;;;1.80;1.70;;;16.50;99.90;;;;;;4932719;28;20051;-86
2023/07/31 11:53:53;;;;;;;2.67;2.47;;;16.50;99.90;;;;;;4934959;28;20042;-85
2023/07/31 11:56:22;;;;;;;2.67;2.47;;;16.60;99.90;;;;;;4929333;28;20182;-84
2023/07/31 11:58:59;;;;;;;2.80;2.60;;;16.50;99.90;;;;;;4925451;28;20047;-83
2023/07/31 12:01:27;;;;;;;3.90;2.80;;;16.50;99.90;;;;;;4934408;28;20054;-82
2023/07/31 12:03:56;;;;;;;3.35;3.03;;;16.50;99.90;;;;;;4929499;28;20216;-83
2023/07/31 12:06:36;;;;;;;2.95;2.67;;;16.60;99.90;;;;;;4942851;28;20168;-86
2023/07/31 12:09:05;;;;;;;2.63;2.40;;;16.60;99.90;;;;;;4946175;28;20070;-84
2023/07/31 12:11:42;;;;;;;3.63;2.78;;;16.60;99.90;;;;;;4940710;28;20093;-83
2023/07/31 12:14:28;;;;;;;3.00;2.42;;;16.50;99.90;;;;;;4915027;28;20492;-86
2023/07/31 12:17:01;;;;;;;2.10;1.90;;;16.40;99.90;;;;;;4940711;28;20211;-87
2023/07/31 12:19:29;;;;;;;2.17;1.98;;;16.30;99.90;;;;;;4917999;28;20368;-84
2023/07/31 12:21:58;;;;;;;4.55;2.53;;;16.30;99.90;;;;;;4925786;28;21787;-78
2023/07/31 12:24:26;;;;;;;2.15;1.95;;;16.20;99.90;;;;;;4945099;28;20077;-83
2023/07/31 12:26:54;;;;;;;3.00;1.42;;;16.20;99.90;;;;;;4927797;28;20179;-81
2023/07/31 12:29:21;;;;;;;3.20;1.45;;;16.30;99.90;;;;;;4930171;28;20707;-81
2023/07/31 12:31:49;;;;;;;2.13;1.65;;;16.30;99.90;;;;;;4913497;28;20070;-82
2023/07/31 12:34:23;;;;;;;1.90;1.55;;;16.40;99.90;;;;;;4918923;28;20070;-80
2023/07/31 12:36:53;;;;;;;2.25;1.90;;;16.40;99.90;;;;;;4914881;28;20260;-81
2023/07/31 12:39:20;;;;;;;2.90;2.10;;;16.50;99.90;;;;;;4930730;28;20249;-82
2023/07/31 12:41:47;;;;;;;3.65;1.58;;;16.60;99.90;;;;;;4930099;28;20057;-80
2023/07/31 12:44:14;;;;;;;3.10;1.90;;;16.70;99.90;;;;;;4911871;28;20220;-81
2023/07/31 12:46:41;;;;;;;2.00;1.75;;;16.80;99.90;;;;;;4909007;28;20487;-79
2023/07/31 12:49:09;;;;;;;2.60;2.25;;;16.80;99.90;;;;;;4930838;28;20051;-82
2023/07/31 12:51:36;;;;;;;2.10;2.00;;;16.90;99.90;;;;;;4922606;28;20109;-83
2023/07/31 12:54:03;;;;;;;2.35;2.03;;;17.00;99.90;;;;;;4929703;28;20043;-83
2023/07/31 12:56:30;;;;;;;3.20;2.85;;;17.00;99.90;;;;;;4941635;28;20035;-85
2023/07/31 12:58:57;;;;;;;3.80;3.60;;;17.00;99.90;;;;;;4926807;28;20170;-83
2023/07/31 13:01:24;;;;;;;3.95;3.65;;;17.00;99.90;;;;;;4939633;28;20046;-81
2023/07/31 13:03:51;;;;;;;6.60;4.18;;;17.00;99.90;;;;;;4933822;28;20501;-81
2023/07/31 13:06:18;;;;;;;4.63;4.32;;;17.10;99.90;;;;;;4928629;28;20404;-82
2023/07/31 13:08:45;;;;;;;4.45;4.05;;;17.00;99.90;;;;;;4923743;28;20078;-84
2023/07/31 13:11:12;;;;;;;4.82;4.53;;;17.00;99.90;;;;;;4936122;28;21117;-85
2023/07/31 13:13:39;;;;;;;4.72;4.38;;;17.00;99.90;;;;;;4935293;28;20051;-81
2023/07/31 13:16:06;;;;;;;4.93;4.60;;;17.00;99.90;;;;;;4938436;28;20165;-86
2023/07/31 13:18:33;;;;;;;5.30;4.90;;;17.00;99.90;;;;;;4931456;28;20141;-84
2023/07/31 13:21:00;;;;;;;5.03;4.60;;;16.90;99.90;;;;;;4916061;28;20058;-84
2023/07/31 13:23:27;;;;;;;4.50;4.20;;;16.90;99.90;;;;;;4925184;28;20039;-83
2023/07/31 13:25:54;;;;;;;4.68;4.20;;;16.90;99.90;;;;;;4913708;28;20312;-84
2023/07/31 13:28:21;;;;;;;4.43;4.13;;;16.80;99.90;;;;;;4930731;28;20074;-82
2023/07/31 13:30:48;;;;;;;4.63;4.22;;;16.80;99.90;;;;;;4933572;28;20072;-84
2023/07/31 13:33:15;;;;;;;4.70;4.30;;;16.80;99.90;;;;;;4933363;28;20276;-82
2023/07/31 13:36:00;;;;;;;4.10;3.60;;;16.90;99.90;;;;;;4912729;28;20382;-83
2023/07/31 13:38:27;;;;;;;4.53;4.13;;;16.90;99.90;;;;;;4936343;28;20054;-82
2023/07/31 13:40:54;;;;;;;4.68;4.28;;;17.00;99.90;;;;;;4923552;28;20270;-83
2023/07/31 13:43:21;;;;;;;4.80;4.40;;;17.00;99.90;;;;;;4946674;28;20058;-85
2023/07/31 13:45:48;;;;;;;4.20;3.80;;;17.00;99.90;;;;;;4915274;28;20500;-83
2023/07/31 13:48:15;;;;;;;4.53;4.13;;;16.90;99.90;;;;;;4924924;28;20403;-82
2023/07/31 13:50:42;;;;;;;4.90;3.95;;;16.80;99.90;;;;;;4921686;28;20626;-82
2023/07/31 13:53:09;;;;;;;4.75;4.20;;;16.90;99.90;;;;;;4912751;29;20042;-82
2023/07/31 13:55:36;;;;;;;3.97;3.42;;;16.80;99.90;;;;;;4935464;28;20455;-83
2023/07/31 13:58:03;;;;;;;4.03;3.58;;;16.90;99.90;;;;;;4932578;28;20456;-82
2023/07/31 14:00:32;;;;;;;4.00;3.70;;;17.00;99.90;;;;;;4935510;28;20113;-81
2023/07/31 14:02:59;;;;;;;4.88;3.95;;;17.00;99.90;;;;;;4933857;28;20043;-81
2023/07/31 14:05:26;;;;;;;5.22;3.75;;;17.10;99.90;;;;;;4930583;28;20043;-81
2023/07/31 14:07:53;;;;;;;4.40;3.70;;;17.10;99.90;;;;;;4931951;28;20481;-83
2023/07/31 14:10:20;;;;;;;7.05;4.20;;;17.20;99.90;;;;;;4926803;28;20046;-82
2023/07/31 14:12:47;;;;;;;4.28;3.85;;;17.20;99.90;;;;;;4935073;28;20050;-82
2023/07/31 14:15:14;;;;;;;5.40;4.20;;;17.20;99.90;;;;;;4947054;28;20081;-81
2023/07/31 14:17:40;;;;;;;4.30;3.90;;;17.20;99.90;;;;;;4927483;28;20423;-83
2023/07/31 14:20:09;;;;;;;4.28;3.58;;;17.20;99.90;;;;;;4925884;28;20141;-81
2023/07/31 14:22:37;;;;;;;4.57;4.15;;;17.10;99.90;;;;;;4889348;29;20057;-83
2023/07/31 14:25:04;;;;;;;5.15;4.13;;;17.10;99.90;;;;;;4896541;29;20330;-81
2023/07/31 14:27:31;;;;;;;4.60;3.83;;;17.00;99.90;;;;;;4909737;28;20047;-83
2023/07/31 14:29:58;;;;;;;5.50;4.10;;;16.90;99.90;;;;;;4912358;28;20075;-84
2023/07/31 14:32:25;;;;;;;4.95;4.10;;;16.90;99.90;;;;;;4928143;28;20036;-85
2023/07/31 14:34:54;;;;;;;5.50;4.00;;;16.90;99.90;;;;;;4914251;28;20044;-85
2023/07/31 14:37:21;;;;;;;5.38;4.20;;;16.80;99.90;;;;;;4899716;28;20078;-83
2023/07/31 14:39:48;;;;;;;4.72;3.90;;;16.80;99.90;;;;;;4943198;28;20047;-84
2023/07/31 14:42:16;;;;;;;4.32;3.92;;;16.80;99.90;;;;;;4954097;28;20051;-82
2023/07/31 14:44:43;;;;;;;5.05;4.20;;;16.70;99.90;;;;;;4921180;28;20050;-81
2023/07/31 14:47:10;;;;;;;6.72;3.97;;;16.60;99.90;;;;;;4925389;28;20113;-87
2023/07/31 14:49:37;;;;;;;5.55;4.30;;;16.60;99.90;;;;;;4909934;28;20117;-84
2023/07/31 14:52:04;;;;;;;6.90;4.10;;;16.60;99.90;;;;;;4933912;28;20335;-83